Terminal Aerodrome Forecast
Issued by NWS

Home | Current Version | Previous Version | Text Only | Print | Product List | Glossary On
Versions: 1 2 3 4 5 6 7 8 9 10 11 12 13 14 15 16 17 18 19 20 21
030
FTUS41 KCAR 242320
TAFBHB
TAF
KBHB 242320Z 2500/2524 20012KT 3SM -SNRA BR OVC005
      TEMPO 2500/2502 3/4SM -SN BR
     FM250400 22009KT 5SM -SN OVC005
     FM250600 32008KT P6SM OVC015
     FM250900 32008KT P6SM BKN035
     FM251200 32010G16KT P6SM FEW050 SCT200=

USA.gov is the U.S. government's official web portal to all federal, state and local government web resources and services.